sensor_id;sensor_type;location;lat;lon;timestamp;P1;durP1;ratioP1;P2;durP2;ratioP2
1785;SDS011;890;48.158;11.540;2023-09-19T00:00:19;2.83;;;1.40;;
1785;SDS011;890;48.158;11.540;2023-09-19T00:02:52;2.40;;;1.50;;
1785;SDS011;890;48.158;11.540;2023-09-19T00:05:24;2.40;;;1.20;;
1785;SDS011;890;48.158;11.540;2023-09-19T00:07:54;2.00;;;1.50;;
1785;SDS011;890;48.158;11.540;2023-09-19T00:10:23;2.67;;;1.60;;
1785;SDS011;890;48.158;11.540;2023-09-19T00:12:56;1.60;;;1.30;;
1785;SDS011;890;48.158;11.540;2023-09-19T00:15:25;1.77;;;1.40;;
1785;SDS011;890;48.158;11.540;2023-09-19T00:17:53;3.20;;;1.50;;
1785;SDS011;890;48.158;11.540;2023-09-19T00:20:20;3.40;;;1.40;;
1785;SDS011;890;48.158;11.540;2023-09-19T00:22:48;2.70;;;1.70;;
1785;SDS011;890;48.158;11.540;2023-09-19T00:25:16;2.13;;;1.63;;
1785;SDS011;890;48.158;11.540;2023-09-19T00:27:42;3.10;;;1.47;;
1785;SDS011;890;48.158;11.540;2023-09-19T00:30:10;2.20;;;1.47;;
1785;SDS011;890;48.158;11.540;2023-09-19T00:32:41;1.43;;;1.33;;
1785;SDS011;890;48.158;11.540;2023-09-19T00:35:07;3.10;;;1.50;;
1785;SDS011;890;48.158;11.540;2023-09-19T00:37:37;1.87;;;1.40;;
1785;SDS011;890;48.158;11.540;2023-09-19T00:40:04;2.13;;;1.30;;
1785;SDS011;890;48.158;11.540;2023-09-19T00:42:32;2.00;;;1.40;;
1785;SDS011;890;48.158;11.540;2023-09-19T00:44:58;1.50;;;1.23;;
1785;SDS011;890;48.158;11.540;2023-09-19T00:47:28;1.90;;;1.20;;
1785;SDS011;890;48.158;11.540;2023-09-19T00:49:54;2.63;;;1.70;;
1785;SDS011;890;48.158;11.540;2023-09-19T00:52:21;2.37;;;1.70;;
1785;SDS011;890;48.158;11.540;2023-09-19T00:54:48;4.23;;;1.53;;
1785;SDS011;890;48.158;11.540;2023-09-19T00:57:15;2.80;;;1.63;;
1785;SDS011;890;48.158;11.540;2023-09-19T00:59:53;1.80;;;1.30;;
1785;SDS011;890;48.158;11.540;2023-09-19T01:02:19;2.00;;;1.40;;
1785;SDS011;890;48.158;11.540;2023-09-19T01:04:46;2.13;;;1.50;;
1785;SDS011;890;48.158;11.540;2023-09-19T01:07:11;2.03;;;1.40;;
1785;SDS011;890;48.158;11.540;2023-09-19T01:09:39;3.27;;;1.70;;
1785;SDS011;890;48.158;11.540;2023-09-19T01:12:06;3.67;;;1.53;;
1785;SDS011;890;48.158;11.540;2023-09-19T01:17:17;2.43;;;1.40;;
1785;SDS011;890;48.158;11.540;2023-09-19T01:28:06;2.60;;;1.70;;
1785;SDS011;890;48.158;11.540;2023-09-19T01:30:51;2.37;;;1.70;;
1785;SDS011;890;48.158;11.540;2023-09-19T01:33:23;2.10;;;1.50;;
1785;SDS011;890;48.158;11.540;2023-09-19T01:35:48;2.97;;;1.53;;
1785;SDS011;890;48.158;11.540;2023-09-19T01:38:15;2.03;;;1.50;;
1785;SDS011;890;48.158;11.540;2023-09-19T01:40:42;4.67;;;1.97;;
1785;SDS011;890;48.158;11.540;2023-09-19T01:43:17;2.53;;;1.50;;
1785;SDS011;890;48.158;11.540;2023-09-19T01:46:38;2.60;;;1.70;;
1785;SDS011;890;48.158;11.540;2023-09-19T01:54:18;2.00;;;1.80;;
1785;SDS011;890;48.158;11.540;2023-09-19T01:59:50;1.67;;;1.37;;
1785;SDS011;890;48.158;11.540;2023-09-19T02:02:21;2.17;;;1.50;;
1785;SDS011;890;48.158;11.540;2023-09-19T02:04:48;2.20;;;1.40;;
1785;SDS011;890;48.158;11.540;2023-09-19T02:07:15;2.10;;;1.40;;
1785;SDS011;890;48.158;11.540;2023-09-19T02:09:41;1.63;;;1.40;;
1785;SDS011;890;48.158;11.540;2023-09-19T02:12:08;2.67;;;1.40;;
1785;SDS011;890;48.158;11.540;2023-09-19T02:14:34;4.50;;;1.80;;
1785;SDS011;890;48.158;11.540;2023-09-19T02:17:01;2.93;;;1.57;;
1785;SDS011;890;48.158;11.540;2023-09-19T02:19:36;2.50;;;1.60;;
1785;SDS011;890;48.158;11.540;2023-09-19T02:22:03;1.90;;;1.47;;
1785;SDS011;890;48.158;11.540;2023-09-19T02:24:33;1.80;;;1.43;;
1785;SDS011;890;48.158;11.540;2023-09-19T02:26:58;2.10;;;1.90;;
1785;SDS011;890;48.158;11.540;2023-09-19T02:29:28;1.87;;;1.77;;
1785;SDS011;890;48.158;11.540;2023-09-19T02:31:54;1.90;;;1.50;;
1785;SDS011;890;48.158;11.540;2023-09-19T02:34:21;2.53;;;1.50;;
1785;SDS011;890;48.158;11.540;2023-09-19T02:36:47;1.67;;;1.50;;
1785;SDS011;890;48.158;11.540;2023-09-19T02:39:12;1.63;;;1.37;;
1785;SDS011;890;48.158;11.540;2023-09-19T02:41:38;2.10;;;1.90;;
1785;SDS011;890;48.158;11.540;2023-09-19T02:44:04;2.77;;;2.00;;
1785;SDS011;890;48.158;11.540;2023-09-19T02:46:32;2.37;;;1.70;;
1785;SDS011;890;48.158;11.540;2023-09-19T02:49:03;4.60;;;1.90;;
1785;SDS011;890;48.158;11.540;2023-09-19T02:51:32;1.70;;;1.60;;
1785;SDS011;890;48.158;11.540;2023-09-19T02:53:59;2.40;;;1.73;;
1785;SDS011;890;48.158;11.540;2023-09-19T02:56:25;1.63;;;1.53;;
1785;SDS011;890;48.158;11.540;2023-09-19T02:58:51;1.93;;;1.67;;
1785;SDS011;890;48.158;11.540;2023-09-19T03:01:18;2.10;;;1.80;;
1785;SDS011;890;48.158;11.540;2023-09-19T03:03:44;2.47;;;2.27;;
1785;SDS011;890;48.158;11.540;2023-09-19T03:06:10;3.00;;;1.97;;
1785;SDS011;890;48.158;11.540;2023-09-19T03:08:38;2.83;;;2.40;;
1785;SDS011;890;48.158;11.540;2023-09-19T03:11:07;1.93;;;1.60;;
1785;SDS011;890;48.158;11.540;2023-09-19T03:13:36;2.27;;;1.50;;
1785;SDS011;890;48.158;11.540;2023-09-19T03:16:03;1.73;;;1.60;;
1785;SDS011;890;48.158;11.540;2023-09-19T03:18:31;1.83;;;1.60;;
1785;SDS011;890;48.158;11.540;2023-09-19T03:20:59;2.10;;;1.50;;
1785;SDS011;890;48.158;11.540;2023-09-19T03:23:25;2.13;;;1.80;;
1785;SDS011;890;48.158;11.540;2023-09-19T03:25:52;1.40;;;1.30;;
1785;SDS011;890;48.158;11.540;2023-09-19T03:28:18;2.00;;;1.80;;
1785;SDS011;890;48.158;11.540;2023-09-19T03:30:45;2.23;;;1.60;;
1785;SDS011;890;48.158;11.540;2023-09-19T03:33:11;2.07;;;1.80;;
1785;SDS011;890;48.158;11.540;2023-09-19T03:35:37;1.77;;;1.57;;
1785;SDS011;890;48.158;11.540;2023-09-19T03:38:05;1.90;;;1.67;;
1785;SDS011;890;48.158;11.540;2023-09-19T03:40:30;1.93;;;1.60;;
1785;SDS011;890;48.158;11.540;2023-09-19T03:42:56;2.30;;;1.70;;
1785;SDS011;890;48.158;11.540;2023-09-19T03:45:21;3.37;;;1.60;;
1785;SDS011;890;48.158;11.540;2023-09-19T03:47:47;2.73;;;1.57;;
1785;SDS011;890;48.158;11.540;2023-09-19T03:50:13;2.40;;;1.90;;
1785;SDS011;890;48.158;11.540;2023-09-19T03:52:42;1.60;;;1.50;;
1785;SDS011;890;48.158;11.540;2023-09-19T03:55:09;3.67;;;2.00;;
1785;SDS011;890;48.158;11.540;2023-09-19T03:57:35;2.43;;;1.70;;
1785;SDS011;890;48.158;11.540;2023-09-19T04:00:02;2.00;;;1.57;;
1785;SDS011;890;48.158;11.540;2023-09-19T04:02:30;2.50;;;1.60;;
1785;SDS011;890;48.158;11.540;2023-09-19T04:04:58;1.93;;;1.60;;
1785;SDS011;890;48.158;11.540;2023-09-19T04:07:24;1.70;;;1.57;;
1785;SDS011;890;48.158;11.540;2023-09-19T04:09:53;3.37;;;2.23;;
1785;SDS011;890;48.158;11.540;2023-09-19T04:12:20;2.03;;;1.80;;
1785;SDS011;890;48.158;11.540;2023-09-19T04:14:45;2.40;;;1.80;;
1785;SDS011;890;48.158;11.540;2023-09-19T04:17:11;2.03;;;1.73;;
1785;SDS011;890;48.158;11.540;2023-09-19T04:19:37;2.90;;;1.70;;
1785;SDS011;890;48.158;11.540;2023-09-19T04:22:02;2.33;;;1.60;;
1785;SDS011;890;48.158;11.540;2023-09-19T04:24:29;2.10;;;1.60;;
1785;SDS011;890;48.158;11.540;2023-09-19T04:26:55;2.23;;;1.70;;
1785;SDS011;890;48.158;11.540;2023-09-19T04:29:22;4.23;;;1.90;;
1785;SDS011;890;48.158;11.540;2023-09-19T04:31:47;3.13;;;2.10;;
1785;SDS011;890;48.158;11.540;2023-09-19T04:34:13;4.43;;;1.90;;
1785;SDS011;890;48.158;11.540;2023-09-19T04:36:42;2.10;;;1.77;;
1785;SDS011;890;48.158;11.540;2023-09-19T04:39:08;2.30;;;1.50;;
1785;SDS011;890;48.158;11.540;2023-09-19T04:41:36;2.07;;;1.77;;
1785;SDS011;890;48.158;11.540;2023-09-19T04:44:06;4.27;;;1.73;;
1785;SDS011;890;48.158;11.540;2023-09-19T04:46:33;1.87;;;1.67;;
1785;SDS011;890;48.158;11.540;2023-09-19T04:48:59;3.47;;;1.90;;
1785;SDS011;890;48.158;11.540;2023-09-19T04:51:25;2.73;;;2.10;;
1785;SDS011;890;48.158;11.540;2023-09-19T04:53:54;2.47;;;1.77;;
1785;SDS011;890;48.158;11.540;2023-09-19T04:56:20;3.60;;;2.10;;
1785;SDS011;890;48.158;11.540;2023-09-19T04:58:46;1.93;;;1.73;;
1785;SDS011;890;48.158;11.540;2023-09-19T05:01:11;2.37;;;1.90;;
1785;SDS011;890;48.158;11.540;2023-09-19T05:03:40;2.10;;;1.70;;
1785;SDS011;890;48.158;11.540;2023-09-19T05:06:05;1.90;;;1.70;;
1785;SDS011;890;48.158;11.540;2023-09-19T05:08:31;2.63;;;1.77;;
1785;SDS011;890;48.158;11.540;2023-09-19T05:10:57;2.23;;;2.03;;
1785;SDS011;890;48.158;11.540;2023-09-19T05:13:22;1.77;;;1.60;;
1785;SDS011;890;48.158;11.540;2023-09-19T05:15:49;2.10;;;1.70;;
1785;SDS011;890;48.158;11.540;2023-09-19T05:18:17;2.80;;;1.73;;
1785;SDS011;890;48.158;11.540;2023-09-19T05:20:43;1.73;;;1.60;;
1785;SDS011;890;48.158;11.540;2023-09-19T05:23:09;3.70;;;1.93;;
1785;SDS011;890;48.158;11.540;2023-09-19T05:25:37;2.13;;;1.93;;
1785;SDS011;890;48.158;11.540;2023-09-19T05:28:05;2.17;;;1.90;;
1785;SDS011;890;48.158;11.540;2023-09-19T05:30:35;2.00;;;1.80;;
1785;SDS011;890;48.158;11.540;2023-09-19T05:33:04;6.33;;;1.70;;
1785;SDS011;890;48.158;11.540;2023-09-19T05:35:31;2.20;;;1.80;;
1785;SDS011;890;48.158;11.540;2023-09-19T05:37:57;2.03;;;1.53;;
1785;SDS011;890;48.158;11.540;2023-09-19T05:40:23;4.33;;;1.50;;
1785;SDS011;890;48.158;11.540;2023-09-19T05:42:50;3.10;;;2.33;;
1785;SDS011;890;48.158;11.540;2023-09-19T05:45:16;2.10;;;1.50;;
1785;SDS011;890;48.158;11.540;2023-09-19T05:47:50;3.27;;;1.70;;
1785;SDS011;890;48.158;11.540;2023-09-19T05:50:18;1.83;;;1.30;;
1785;SDS011;890;48.158;11.540;2023-09-19T05:52:47;1.50;;;1.37;;
1785;SDS011;890;48.158;11.540;2023-09-19T05:55:17;1.90;;;1.60;;
1785;SDS011;890;48.158;11.540;2023-09-19T05:57:43;2.03;;;1.47;;
1785;SDS011;890;48.158;11.540;2023-09-19T06:00:13;2.60;;;1.53;;
1785;SDS011;890;48.158;11.540;2023-09-19T06:02:39;1.70;;;1.40;;
1785;SDS011;890;48.158;11.540;2023-09-19T06:05:05;2.10;;;1.37;;
1785;SDS011;890;48.158;11.540;2023-09-19T06:07:35;2.10;;;1.37;;
1785;SDS011;890;48.158;11.540;2023-09-19T06:10:05;1.90;;;1.70;;
1785;SDS011;890;48.158;11.540;2023-09-19T06:12:38;4.43;;;1.97;;
1785;SDS011;890;48.158;11.540;2023-09-19T06:15:04;2.77;;;1.30;;
1785;SDS011;890;48.158;11.540;2023-09-19T06:17:31;2.50;;;1.40;;
1785;SDS011;890;48.158;11.540;2023-09-19T06:19:57;2.30;;;1.80;;
1785;SDS011;890;48.158;11.540;2023-09-19T06:22:22;3.47;;;1.90;;
1785;SDS011;890;48.158;11.540;2023-09-19T06:24:49;2.00;;;1.40;;
1785;SDS011;890;48.158;11.540;2023-09-19T06:27:15;2.73;;;1.80;;
1785;SDS011;890;48.158;11.540;2023-09-19T06:29:42;1.97;;;1.60;;
1785;SDS011;890;48.158;11.540;2023-09-19T06:32:08;3.50;;;1.77;;
1785;SDS011;890;48.158;11.540;2023-09-19T06:34:35;5.33;;;1.80;;
1785;SDS011;890;48.158;11.540;2023-09-19T06:37:01;3.47;;;1.83;;
1785;SDS011;890;48.158;11.540;2023-09-19T06:39:28;3.37;;;1.40;;
1785;SDS011;890;48.158;11.540;2023-09-19T06:41:53;2.07;;;1.57;;
1785;SDS011;890;48.158;11.540;2023-09-19T06:44:19;1.77;;;1.43;;
1785;SDS011;890;48.158;11.540;2023-09-19T06:46:49;1.80;;;1.40;;
1785;SDS011;890;48.158;11.540;2023-09-19T06:49:16;1.63;;;1.30;;
1785;SDS011;890;48.158;11.540;2023-09-19T06:51:42;1.90;;;1.60;;
1785;SDS011;890;48.158;11.540;2023-09-19T06:54:08;2.17;;;1.57;;
1785;SDS011;890;48.158;11.540;2023-09-19T06:56:34;2.50;;;1.63;;
1785;SDS011;890;48.158;11.540;2023-09-19T06:59:00;3.50;;;1.50;;
1785;SDS011;890;48.158;11.540;2023-09-19T07:01:27;4.30;;;1.70;;
1785;SDS011;890;48.158;11.540;2023-09-19T07:03:53;1.67;;;1.30;;
1785;SDS011;890;48.158;11.540;2023-09-19T07:06:19;3.13;;;1.63;;
1785;SDS011;890;48.158;11.540;2023-09-19T07:08:45;4.00;;;1.43;;
1785;SDS011;890;48.158;11.540;2023-09-19T07:11:10;2.23;;;1.40;;
1785;SDS011;890;48.158;11.540;2023-09-19T07:13:37;2.93;;;1.40;;
1785;SDS011;890;48.158;11.540;2023-09-19T07:16:03;2.43;;;1.50;;
1785;SDS011;890;48.158;11.540;2023-09-19T07:18:29;1.40;;;1.30;;
1785;SDS011;890;48.158;11.540;2023-09-19T07:20:57;1.30;;;1.10;;
1785;SDS011;890;48.158;11.540;2023-09-19T07:23:30;1.70;;;1.60;;
1785;SDS011;890;48.158;11.540;2023-09-19T07:26:00;3.90;;;3.43;;
1785;SDS011;890;48.158;11.540;2023-09-19T07:28:26;1.70;;;1.30;;
1785;SDS011;890;48.158;11.540;2023-09-19T07:30:53;7.00;;;1.77;;
1785;SDS011;890;48.158;11.540;2023-09-19T07:33:19;2.70;;;1.90;;
1785;SDS011;890;48.158;11.540;2023-09-19T07:35:45;1.77;;;1.40;;
1785;SDS011;890;48.158;11.540;2023-09-19T07:38:12;1.97;;;1.40;;
1785;SDS011;890;48.158;11.540;2023-09-19T07:40:37;1.53;;;1.30;;
1785;SDS011;890;48.158;11.540;2023-09-19T07:43:03;2.10;;;1.47;;
1785;SDS011;890;48.158;11.540;2023-09-19T07:45:30;2.33;;;1.50;;
1785;SDS011;890;48.158;11.540;2023-09-19T07:47:56;2.57;;;1.40;;
1785;SDS011;890;48.158;11.540;2023-09-19T07:50:22;1.70;;;1.40;;
1785;SDS011;890;48.158;11.540;2023-09-19T07:52:48;2.00;;;1.33;;
1785;SDS011;890;48.158;11.540;2023-09-19T07:55:18;4.70;;;1.40;;
1785;SDS011;890;48.158;11.540;2023-09-19T07:57:48;2.50;;;1.20;;
1785;SDS011;890;48.158;11.540;2023-09-19T08:00:14;1.70;;;1.40;;
1785;SDS011;890;48.158;11.540;2023-09-19T08:02:40;2.00;;;1.10;;
1785;SDS011;890;48.158;11.540;2023-09-19T08:05:07;1.47;;;1.03;;
1785;SDS011;890;48.158;11.540;2023-09-19T08:07:37;6.57;;;1.20;;
1785;SDS011;890;48.158;11.540;2023-09-19T08:10:03;2.30;;;1.37;;
1785;SDS011;890;48.158;11.540;2023-09-19T08:12:32;2.10;;;1.37;;
1785;SDS011;890;48.158;11.540;2023-09-19T08:15:00;1.73;;;1.40;;
1785;SDS011;890;48.158;11.540;2023-09-19T08:17:27;2.13;;;1.20;;
1785;SDS011;890;48.158;11.540;2023-09-19T08:19:53;3.20;;;1.43;;
1785;SDS011;890;48.158;11.540;2023-09-19T08:22:21;2.87;;;1.50;;
1785;SDS011;890;48.158;11.540;2023-09-19T08:24:48;2.60;;;1.37;;
1785;SDS011;890;48.158;11.540;2023-09-19T08:27:14;2.00;;;1.23;;
1785;SDS011;890;48.158;11.540;2023-09-19T08:29:40;3.20;;;1.70;;
1785;SDS011;890;48.158;11.540;2023-09-19T08:32:07;2.10;;;1.37;;
1785;SDS011;890;48.158;11.540;2023-09-19T08:34:33;2.10;;;1.30;;
1785;SDS011;890;48.158;11.540;2023-09-19T08:36:59;2.20;;;1.17;;
1785;SDS011;890;48.158;11.540;2023-09-19T08:39:25;1.60;;;0.93;;
1785;SDS011;890;48.158;11.540;2023-09-19T08:41:57;1.10;;;1.00;;
1785;SDS011;890;48.158;11.540;2023-09-19T08:44:27;1.73;;;1.27;;
1785;SDS011;890;48.158;11.540;2023-09-19T08:47:08;1.90;;;1.30;;
1785;SDS011;890;48.158;11.540;2023-09-19T08:49:58;1.73;;;1.40;;
1785;SDS011;890;48.158;11.540;2023-09-19T08:52:46;2.73;;;1.30;;
1785;SDS011;890;48.158;11.540;2023-09-19T08:55:15;2.30;;;1.40;;
1785;SDS011;890;48.158;11.540;2023-09-19T08:57:46;2.53;;;1.50;;
1785;SDS011;890;48.158;11.540;2023-09-19T09:00:15;1.63;;;1.17;;
1785;SDS011;890;48.158;11.540;2023-09-19T09:02:46;1.33;;;1.20;;
1785;SDS011;890;48.158;11.540;2023-09-19T09:05:13;1.23;;;1.10;;
1785;SDS011;890;48.158;11.540;2023-09-19T09:07:40;1.43;;;1.20;;
1785;SDS011;890;48.158;11.540;2023-09-19T09:10:07;1.40;;;1.30;;
1785;SDS011;890;48.158;11.540;2023-09-19T09:12:33;1.40;;;1.10;;
1785;SDS011;890;48.158;11.540;2023-09-19T09:15:02;2.23;;;1.27;;
1785;SDS011;890;48.158;11.540;2023-09-19T09:17:29;1.30;;;1.10;;
1785;SDS011;890;48.158;11.540;2023-09-19T09:19:55;1.63;;;1.00;;
1785;SDS011;890;48.158;11.540;2023-09-19T09:22:21;1.40;;;1.27;;
1785;SDS011;890;48.158;11.540;2023-09-19T09:24:56;2.13;;;1.40;;
1785;SDS011;890;48.158;11.540;2023-09-19T09:27:30;1.70;;;1.07;;
1785;SDS011;890;48.158;11.540;2023-09-19T09:29:57;1.97;;;0.90;;
1785;SDS011;890;48.158;11.540;2023-09-19T09:32:25;1.57;;;1.30;;
1785;SDS011;890;48.158;11.540;2023-09-19T09:34:58;3.50;;;1.50;;
1785;SDS011;890;48.158;11.540;2023-09-19T09:37:25;1.17;;;0.80;;
1785;SDS011;890;48.158;11.540;2023-09-19T09:39:57;1.90;;;1.30;;
1785;SDS011;890;48.158;11.540;2023-09-19T09:42:33;2.03;;;0.93;;
1785;SDS011;890;48.158;11.540;2023-09-19T09:47:53;2.77;;;1.93;;
1785;SDS011;890;48.158;11.540;2023-09-19T09:50:24;1.30;;;1.00;;
1785;SDS011;890;48.158;11.540;2023-09-19T09:53:28;2.07;;;1.30;;
1785;SDS011;890;48.158;11.540;2023-09-19T09:56:04;2.10;;;1.23;;
1785;SDS011;890;48.158;11.540;2023-09-19T10:01:13;2.77;;;1.10;;
1785;SDS011;890;48.158;11.540;2023-09-19T10:03:40;1.57;;;1.20;;
1785;SDS011;890;48.158;11.540;2023-09-19T10:06:14;1.37;;;1.00;;
1785;SDS011;890;48.158;11.540;2023-09-19T10:11:43;2.37;;;1.20;;
1785;SDS011;890;48.158;11.540;2023-09-19T10:14:15;2.03;;;1.13;;
1785;SDS011;890;48.158;11.540;2023-09-19T10:16:50;1.50;;;1.30;;
1785;SDS011;890;48.158;11.540;2023-09-19T10:19:41;7.50;;;1.40;;
1785;SDS011;890;48.158;11.540;2023-09-19T10:22:11;1.40;;;0.90;;
1785;SDS011;890;48.158;11.540;2023-09-19T10:24:45;1.30;;;1.10;;
1785;SDS011;890;48.158;11.540;2023-09-19T10:27:12;1.93;;;1.20;;
1785;SDS011;890;48.158;11.540;2023-09-19T10:29:42;1.97;;;1.20;;
1785;SDS011;890;48.158;11.540;2023-09-19T10:32:12;1.40;;;1.30;;
1785;SDS011;890;48.158;11.540;2023-09-19T10:34:44;1.23;;;1.00;;
1785;SDS011;890;48.158;11.540;2023-09-19T10:37:15;1.87;;;1.10;;
1785;SDS011;890;48.158;11.540;2023-09-19T10:39:45;2.13;;;1.40;;
1785;SDS011;890;48.158;11.540;2023-09-19T10:42:14;1.90;;;1.30;;
1785;SDS011;890;48.158;11.540;2023-09-19T10:44:45;1.50;;;1.30;;
1785;SDS011;890;48.158;11.540;2023-09-19T10:47:18;1.57;;;1.47;;
1785;SDS011;890;48.158;11.540;2023-09-19T10:49:45;2.80;;;1.30;;
1785;SDS011;890;48.158;11.540;2023-09-19T10:52:15;1.37;;;1.13;;
1785;SDS011;890;48.158;11.540;2023-09-19T10:54:46;3.17;;;1.70;;
1785;SDS011;890;48.158;11.540;2023-09-19T10:57:23;1.77;;;1.40;;
1785;SDS011;890;48.158;11.540;2023-09-19T11:14:39;5.03;;;2.97;;
1785;SDS011;890;48.158;11.540;2023-09-19T11:30:34;2.03;;;1.10;;
1785;SDS011;890;48.158;11.540;2023-09-19T11:43:51;1.33;;;1.03;;
1785;SDS011;890;48.158;11.540;2023-09-19T11:46:21;1.33;;;1.23;;
1785;SDS011;890;48.158;11.540;2023-09-19T11:48:47;3.93;;;1.40;;
1785;SDS011;890;48.158;11.540;2023-09-19T11:51:18;2.27;;;1.40;;
1785;SDS011;890;48.158;11.540;2023-09-19T11:53:52;2.13;;;1.20;;
1785;SDS011;890;48.158;11.540;2023-09-19T11:56:25;3.73;;;1.20;;
1785;SDS011;890;48.158;11.540;2023-09-19T11:58:56;1.30;;;1.20;;
1785;SDS011;890;48.158;11.540;2023-09-19T12:03:59;1.83;;;1.20;;
1785;SDS011;890;48.158;11.540;2023-09-19T12:06:27;1.70;;;1.03;;
1785;SDS011;890;48.158;11.540;2023-09-19T12:09:01;1.20;;;1.10;;
1785;SDS011;890;48.158;11.540;2023-09-19T12:11:32;2.53;;;1.10;;
1785;SDS011;890;48.158;11.540;2023-09-19T12:13:58;1.60;;;1.37;;
1785;SDS011;890;48.158;11.540;2023-09-19T12:16:26;1.40;;;1.20;;
1785;SDS011;890;48.158;11.540;2023-09-19T12:18:55;1.67;;;1.17;;
1785;SDS011;890;48.158;11.540;2023-09-19T12:26:41;1.70;;;1.10;;
1785;SDS011;890;48.158;11.540;2023-09-19T12:29:16;1.60;;;1.10;;
1785;SDS011;890;48.158;11.540;2023-09-19T12:31:58;1.33;;;1.10;;
1785;SDS011;890;48.158;11.540;2023-09-19T12:34:25;1.63;;;1.30;;
1785;SDS011;890;48.158;11.540;2023-09-19T12:37:04;1.53;;;1.40;;
1785;SDS011;890;48.158;11.540;2023-09-19T12:39:52;1.50;;;1.20;;
1785;SDS011;890;48.158;11.540;2023-09-19T12:42:20;1.47;;;1.37;;
1785;SDS011;890;48.158;11.540;2023-09-19T12:44:48;3.10;;;1.20;;
1785;SDS011;890;48.158;11.540;2023-09-19T12:47:20;1.33;;;1.20;;
1785;SDS011;890;48.158;11.540;2023-09-19T12:55:20;2.17;;;1.57;;
1785;SDS011;890;48.158;11.540;2023-09-19T13:00:38;2.90;;;1.60;;
1785;SDS011;890;48.158;11.540;2023-09-19T13:05:57;3.93;;;1.20;;
1785;SDS011;890;48.158;11.540;2023-09-19T13:23:52;361.85;;;330.90;;
1785;SDS011;890;48.158;11.540;2023-09-19T13:26:21;67.43;;;62.03;;
1785;SDS011;890;48.158;11.540;2023-09-19T13:28:47;1.47;;;1.30;;
1785;SDS011;890;48.158;11.540;2023-09-19T13:31:14;286.73;;;262.40;;
1785;SDS011;890;48.158;11.540;2023-09-19T13:33:47;980.07;;;916.47;;
1785;SDS011;890;48.158;11.540;2023-09-19T13:36:13;251.20;;;234.03;;
1785;SDS011;890;48.158;11.540;2023-09-19T13:38:40;31.37;;;28.90;;
1785;SDS011;890;48.158;11.540;2023-09-19T13:41:08;626.83;;;587.73;;
1785;SDS011;890;48.158;11.540;2023-09-19T13:43:36;68.27;;;63.93;;
1785;SDS011;890;48.158;11.540;2023-09-19T13:46:03;626.50;;;587.20;;
1785;SDS011;890;48.158;11.540;2023-09-19T13:48:30;1154.27;;;999.90;;
1785;SDS011;890;48.158;11.540;2023-09-19T13:50:56;550.83;;;515.90;;
1785;SDS011;890;48.158;11.540;2023-09-19T13:53:22;1105.70;;;999.33;;
1785;SDS011;890;48.158;11.540;2023-09-19T13:55:48;1012.63;;;947.37;;
1785;SDS011;890;48.158;11.540;2023-09-19T13:58:14;27.50;;;24.60;;
1785;SDS011;890;48.158;11.540;2023-09-19T14:00:40;1.77;;;1.40;;
1785;SDS011;890;48.158;11.540;2023-09-19T14:03:05;7.00;;;1.30;;
1785;SDS011;890;48.158;11.540;2023-09-19T14:05:31;1.60;;;1.40;;
1785;SDS011;890;48.158;11.540;2023-09-19T14:07:57;1.40;;;1.30;;
1785;SDS011;890;48.158;11.540;2023-09-19T14:10:24;1.87;;;1.40;;
1785;SDS011;890;48.158;11.540;2023-09-19T14:12:52;2.47;;;1.27;;
1785;SDS011;890;48.158;11.540;2023-09-19T14:15:17;1.40;;;1.10;;
1785;SDS011;890;48.158;11.540;2023-09-19T14:17:43;1.00;;;0.90;;
1785;SDS011;890;48.158;11.540;2023-09-19T14:20:11;1.40;;;1.10;;
1785;SDS011;890;48.158;11.540;2023-09-19T14:22:37;1.83;;;1.33;;
1785;SDS011;890;48.158;11.540;2023-09-19T14:25:04;1.60;;;1.10;;
1785;SDS011;890;48.158;11.540;2023-09-19T14:27:30;1.50;;;1.10;;
1785;SDS011;890;48.158;11.540;2023-09-19T14:29:55;2.47;;;1.20;;
1785;SDS011;890;48.158;11.540;2023-09-19T14:32:22;1.40;;;1.10;;
1785;SDS011;890;48.158;11.540;2023-09-19T14:34:48;3.27;;;1.37;;
1785;SDS011;890;48.158;11.540;2023-09-19T14:37:14;1.63;;;1.20;;
1785;SDS011;890;48.158;11.540;2023-09-19T14:39:41;1.63;;;1.30;;
1785;SDS011;890;48.158;11.540;2023-09-19T14:42:09;1.40;;;1.20;;
1785;SDS011;890;48.158;11.540;2023-09-19T14:44:35;2.40;;;1.80;;
1785;SDS011;890;48.158;11.540;2023-09-19T14:47:02;3.13;;;2.70;;
1785;SDS011;890;48.158;11.540;2023-09-19T14:49:32;2.87;;;2.10;;
1785;SDS011;890;48.158;11.540;2023-09-19T14:51:58;2.37;;;1.70;;
1785;SDS011;890;48.158;11.540;2023-09-19T14:54:24;2.70;;;1.27;;
1785;SDS011;890;48.158;11.540;2023-09-19T14:56:50;1.50;;;1.20;;
1785;SDS011;890;48.158;11.540;2023-09-19T14:59:28;2.00;;;1.13;;
1785;SDS011;890;48.158;11.540;2023-09-19T15:01:55;1.80;;;1.53;;
1785;SDS011;890;48.158;11.540;2023-09-19T15:04:20;3.40;;;1.30;;
1785;SDS011;890;48.158;11.540;2023-09-19T15:06:46;1.90;;;1.20;;
1785;SDS011;890;48.158;11.540;2023-09-19T15:09:13;1.73;;;1.43;;
1785;SDS011;890;48.158;11.540;2023-09-19T15:11:39;1.47;;;1.37;;
1785;SDS011;890;48.158;11.540;2023-09-19T15:14:04;1.70;;;1.30;;
1785;SDS011;890;48.158;11.540;2023-09-19T15:16:30;1.50;;;1.10;;
1785;SDS011;890;48.158;11.540;2023-09-19T15:18:56;2.40;;;1.57;;
1785;SDS011;890;48.158;11.540;2023-09-19T15:21:21;1.70;;;1.33;;
1785;SDS011;890;48.158;11.540;2023-09-19T15:23:48;2.17;;;1.60;;
1785;SDS011;890;48.158;11.540;2023-09-19T15:26:14;3.63;;;1.30;;
1785;SDS011;890;48.158;11.540;2023-09-19T15:28:45;1.83;;;1.43;;
1785;SDS011;890;48.158;11.540;2023-09-19T15:31:11;1.73;;;1.30;;
1785;SDS011;890;48.158;11.540;2023-09-19T15:33:38;2.10;;;1.40;;
1785;SDS011;890;48.158;11.540;2023-09-19T15:36:04;1.90;;;1.50;;
1785;SDS011;890;48.158;11.540;2023-09-19T15:41:23;334.40;;;313.83;;
1785;SDS011;890;48.158;11.540;2023-09-19T15:43:49;198.37;;;184.30;;
1785;SDS011;890;48.158;11.540;2023-09-19T15:46:15;79.90;;;74.53;;
1785;SDS011;890;48.158;11.540;2023-09-19T15:48:41;5.33;;;3.53;;
1785;SDS011;890;48.158;11.540;2023-09-19T15:51:07;24.20;;;22.37;;
1785;SDS011;890;48.158;11.540;2023-09-19T15:53:43;47.53;;;44.37;;
1785;SDS011;890;48.158;11.540;2023-09-19T15:56:10;4.07;;;3.77;;
1785;SDS011;890;48.158;11.540;2023-09-19T15:58:36;72.90;;;68.50;;
1785;SDS011;890;48.158;11.540;2023-09-19T16:01:11;19.67;;;17.93;;
1785;SDS011;890;48.158;11.540;2023-09-19T16:03:38;3.87;;;2.60;;
1785;SDS011;890;48.158;11.540;2023-09-19T16:06:12;2.20;;;0.97;;
1785;SDS011;890;48.158;11.540;2023-09-19T16:08:48;5.70;;;2.20;;
1785;SDS011;890;48.158;11.540;2023-09-19T16:11:16;44.63;;;41.67;;
1785;SDS011;890;48.158;11.540;2023-09-19T16:13:43;2.47;;;1.60;;
1785;SDS011;890;48.158;11.540;2023-09-19T16:16:11;42.63;;;39.57;;
1785;SDS011;890;48.158;11.540;2023-09-19T16:18:37;43.07;;;40.10;;
1785;SDS011;890;48.158;11.540;2023-09-19T16:21:04;4.60;;;2.70;;
1785;SDS011;890;48.158;11.540;2023-09-19T16:23:32;4.30;;;3.37;;
1785;SDS011;890;48.158;11.540;2023-09-19T16:26:02;1.60;;;1.50;;
1785;SDS011;890;48.158;11.540;2023-09-19T16:28:38;5.33;;;2.40;;
1785;SDS011;890;48.158;11.540;2023-09-19T16:31:04;4.10;;;3.17;;
1785;SDS011;890;48.158;11.540;2023-09-19T16:33:31;1061.33;;;991.60;;
1785;SDS011;890;48.158;11.540;2023-09-19T16:35:58;1200.50;;;999.90;;
1785;SDS011;890;48.158;11.540;2023-09-19T16:38:25;1196.60;;;999.90;;
1785;SDS011;890;48.158;11.540;2023-09-19T16:43:18;1190.33;;;999.90;;
1785;SDS011;890;48.158;11.540;2023-09-19T16:45:55;1173.13;;;999.90;;
1785;SDS011;890;48.158;11.540;2023-09-19T16:48:27;1122.83;;;999.90;;
1785;SDS011;890;48.158;11.540;2023-09-19T16:50:54;1163.13;;;999.90;;
1785;SDS011;890;48.158;11.540;2023-09-19T16:53:23;1209.43;;;999.90;;
1785;SDS011;890;48.158;11.540;2023-09-19T16:55:49;1151.73;;;999.90;;
1785;SDS011;890;48.158;11.540;2023-09-19T16:58:15;1193.57;;;999.90;;
1785;SDS011;890;48.158;11.540;2023-09-19T17:00:42;1147.67;;;999.90;;
1785;SDS011;890;48.158;11.540;2023-09-19T17:03:10;1152.73;;;999.90;;